createdAt,value
2019-04-21T00:01:15.002Z,48.70
2019-04-21T00:03:52.201Z,49.50
2019-04-21T00:06:45.611Z,48.90
2019-04-21T00:11:41.057Z,48.20
2019-04-21T00:14:11.431Z,47.60
2019-04-21T00:16:34.763Z,47.10
2019-04-21T00:19:17.345Z,46.60
2019-04-21T00:21:47.833Z,46.30
2019-04-21T00:24:30.489Z,47.20
2019-04-21T00:27:07.737Z,46.70
2019-04-21T00:29:45.624Z,46.90
2019-04-21T00:32:06.929Z,47.60
2019-04-21T00:34:23.828Z,48.60
2019-04-21T00:37:05.793Z,49.40
2019-04-21T00:39:57.775Z,49.50
2019-04-21T00:42:18.218Z,49.50
2019-04-21T00:44:44.361Z,48.60
2019-04-21T00:47:29.169Z,48.40
2019-04-21T00:49:57.927Z,48.10
2019-04-21T00:53:29.673Z,47.80
2019-04-21T00:55:44.375Z,47.80
2019-04-21T00:58:18.342Z,48.00
2019-04-21T01:00:46.196Z,47.80
2019-04-21T01:03:23.168Z,47.60
2019-04-21T01:05:51.718Z,47.30
2019-04-21T01:08:19.920Z,47.10
2019-04-21T01:10:43.585Z,46.80
2019-04-21T01:13:29.444Z,46.90
2019-04-21T01:16:00.811Z,46.70
2019-04-21T01:18:27.636Z,47.10
2019-04-21T01:20:39.684Z,47.20
2019-04-21T01:23:10.544Z,47.30
2019-04-21T01:25:49.969Z,47.60
2019-04-21T01:28:29.280Z,48.00
2019-04-21T01:31:05.033Z,49.10
2019-04-21T01:33:42.932Z,49.30
2019-04-21T01:36:09.780Z,49.60
2019-04-21T01:38:48.189Z,49.50
2019-04-21T01:41:21.001Z,48.50
2019-04-21T01:43:45.198Z,47.50
2019-04-21T01:46:15.151Z,47.30
2019-04-21T01:48:47.987Z,47.00
2019-04-21T01:51:23.499Z,46.40
2019-04-21T01:54:22.418Z,46.10
2019-04-21T01:57:15.707Z,45.80
2019-04-21T01:59:40.217Z,45.70
2019-04-21T02:02:18.384Z,45.80
2019-04-21T02:04:57.597Z,46.40
2019-04-21T02:07:27.106Z,46.70
2019-04-21T02:10:00.767Z,47.10
2019-04-21T02:12:36.064Z,46.70
2019-04-21T02:15:06.344Z,49.50
2019-04-21T02:17:34.150Z,49.90
2019-04-21T02:19:59.994Z,49.60
2019-04-21T02:25:18.213Z,50.30
2019-04-21T02:27:47.386Z,51.10
2019-04-21T02:30:27.863Z,51.80
2019-04-21T02:33:03.864Z,52.30
2019-04-21T02:38:09.041Z,53.30
2019-04-21T02:40:38.957Z,53.20
2019-04-21T02:45:41.021Z,53.50
2019-04-21T02:53:21.270Z,54.40
2019-04-21T02:55:43.660Z,54.60
2019-04-21T03:01:29.172Z,53.10
2019-04-21T03:06:51.749Z,50.20
2019-04-21T03:09:24.367Z,50.00
2019-04-21T03:11:56.448Z,50.00
2019-04-21T03:14:50.479Z,50.30
2019-04-21T03:16:55.635Z,50.30
2019-04-21T03:19:41.704Z,50.60
2019-04-21T03:22:07.221Z,51.00
2019-04-21T03:25:00.914Z,51.10
2019-04-21T03:27:17.544Z,51.10
2019-04-21T03:29:42.523Z,51.30
2019-04-21T03:37:17.239Z,51.40
2019-04-21T03:42:27.169Z,51.70
2019-04-21T03:44:53.225Z,51.70
2019-04-21T04:01:02.386Z,53.30
2019-04-21T04:06:20.811Z,54.40
2019-04-21T04:14:18.497Z,54.90
2019-04-21T04:16:37.232Z,55.30
2019-04-21T04:24:22.263Z,55.70
2019-04-21T04:31:43.905Z,55.90
2019-04-21T04:34:22.773Z,56.00
2019-04-21T04:37:12.642Z,55.90
2019-04-21T04:42:39.005Z,56.10
2019-04-21T04:45:14.999Z,56.10
2019-04-21T04:47:44.654Z,55.90
2019-04-21T04:50:15.630Z,56.30
2019-04-21T04:55:18.981Z,56.10
2019-04-21T05:00:25.753Z,55.80
2019-04-21T05:05:36.212Z,55.80
2019-04-21T05:08:08.309Z,55.60
2019-04-21T05:10:43.110Z,55.50
2019-04-21T05:13:01.177Z,55.40
2019-04-21T05:15:28.575Z,55.50
2019-04-21T05:18:05.427Z,55.50
2019-04-21T05:20:29.920Z,55.70
2019-04-21T05:22:58.207Z,55.80
2019-04-21T05:25:31.150Z,55.70
2019-04-21T05:28:01.031Z,55.80
2019-04-21T05:30:52.047Z,55.80
2019-04-21T05:33:38.097Z,55.60
2019-04-21T05:36:15.540Z,55.50
2019-04-21T05:39:07.646Z,55.50
2019-04-21T05:41:31.363Z,56.20
2019-04-21T05:44:09.862Z,55.70
2019-04-21T05:46:49.428Z,55.10
2019-04-21T05:49:22.211Z,54.90
2019-04-21T05:51:55.548Z,54.60
2019-04-21T05:54:45.639Z,54.10
2019-04-21T05:57:06.603Z,53.50
2019-04-21T05:59:40.148Z,53.20
2019-04-21T06:02:23.629Z,53.00
2019-04-21T06:09:56.449Z,52.00
2019-04-21T06:12:21.185Z,51.70
2019-04-21T06:15:00.949Z,51.20
2019-04-21T06:20:02.849Z,50.90
2019-04-21T06:22:33.224Z,50.60
2019-04-21T06:25:37.849Z,50.00
2019-04-21T06:27:40.304Z,49.70
2019-04-21T06:30:13.639Z,49.30
2019-04-21T06:32:50.588Z,49.00
2019-04-21T06:35:48.494Z,48.80
2019-04-21T06:38:05.719Z,48.40
2019-04-21T06:40:42.271Z,48.40
2019-04-21T06:43:24.637Z,46.90
2019-04-21T06:45:50.714Z,47.10
2019-04-21T06:48:34.243Z,45.80
2019-04-21T06:51:09.009Z,45.60
2019-04-21T06:53:50.236Z,44.90
2019-04-21T06:56:15.470Z,44.80
2019-04-21T06:58:45.008Z,43.90
2019-04-21T07:01:15.487Z,43.80
2019-04-21T07:03:58.935Z,44.10
2019-04-21T07:06:24.592Z,43.90
2019-04-21T07:09:03.232Z,44.10
2019-04-21T07:11:25.328Z,44.00
2019-04-21T07:14:19.569Z,43.10
2019-04-21T07:16:38.441Z,43.40
2019-04-21T07:19:17.524Z,43.40
2019-04-21T07:21:43.028Z,42.80
2019-04-21T07:24:13.850Z,42.70
2019-04-21T07:26:45.981Z,42.70
2019-04-21T07:29:20.664Z,41.40
2019-04-21T07:34:30.558Z,41.30
2019-04-21T07:36:56.074Z,40.80
2019-04-21T07:39:28.120Z,40.50
2019-04-21T07:41:53.987Z,40.50
2019-04-21T07:44:28.723Z,39.80
2019-04-21T07:46:57.360Z,39.50
2019-04-21T07:50:00.914Z,39.20
2019-04-21T07:53:00.986Z,39.00
2019-04-21T07:58:02.845Z,38.50
2019-04-21T08:00:45.484Z,38.30
2019-04-21T08:03:14.170Z,38.40
2019-04-21T08:05:47.114Z,38.30
2019-04-21T08:08:14.316Z,38.10
2019-04-21T08:10:45.517Z,37.90
2019-04-21T08:13:28.863Z,37.60
2019-04-21T08:15:53.775Z,37.90
2019-04-21T08:18:28.794Z,37.80
2019-04-21T08:20:54.802Z,37.80
2019-04-21T08:23:31.509Z,38.60
2019-04-21T08:26:04.721Z,39.40
2019-04-21T08:28:49.544Z,40.60
2019-04-21T08:31:14.625Z,41.90
2019-04-21T08:33:56.084Z,38.90
2019-04-21T08:36:25.538Z,38.80
2019-04-21T08:38:54.426Z,38.60
2019-04-21T08:41:28.085Z,36.50
2019-04-21T08:44:01.785Z,36.40
2019-04-21T08:46:40.850Z,36.60
2019-04-21T08:49:11.972Z,35.70
2019-04-21T08:51:47.330Z,35.60
2019-04-21T08:54:16.107Z,35.40
2019-04-21T08:57:07.837Z,34.70
2019-04-21T08:59:58.670Z,34.10
2019-04-21T09:02:35.014Z,34.80
2019-04-21T09:05:05.256Z,35.00
2019-04-21T09:07:39.438Z,35.00
2019-04-21T09:10:12.645Z,35.50
2019-04-21T09:12:41.764Z,35.60
2019-04-21T09:15:13.902Z,35.00
2019-04-21T09:17:39.527Z,35.50
2019-04-21T09:20:24.910Z,34.70
2019-04-21T09:22:47.817Z,32.70
2019-04-21T09:25:30.365Z,32.30
2019-04-21T09:27:55.256Z,29.90
2019-04-21T09:30:10.919Z,30.30
2019-04-21T09:32:42.511Z,30.40
2019-04-21T09:35:16.560Z,30.50
2019-04-21T09:37:54.576Z,30.00
2019-04-21T09:40:27.378Z,30.10
2019-04-21T09:42:57.491Z,29.90
2019-04-21T09:45:24.593Z,29.20
2019-04-21T09:48:03.016Z,29.40
2019-04-21T09:50:27.915Z,29.80
2019-04-21T09:53:10.764Z,29.50
2019-04-21T09:55:41.537Z,29.10
2019-04-21T09:58:14.761Z,28.80
2019-04-21T10:00:47.642Z,28.30
2019-04-21T10:03:12.431Z,29.10
2019-04-21T10:05:41.683Z,29.20
2019-04-21T10:08:12.570Z,29.80
2019-04-21T10:10:44.455Z,29.50
2019-04-21T10:13:15.412Z,29.90
2019-04-21T10:15:48.563Z,34.90
2019-04-21T10:18:21.533Z,32.30
2019-04-21T10:20:52.431Z,34.80
2019-04-21T10:23:23.313Z,33.20
2019-04-21T10:25:54.681Z,32.40
2019-04-21T10:28:26.900Z,32.10
2019-04-21T10:30:58.545Z,31.00
2019-04-21T10:33:30.340Z,31.50
2019-04-21T10:36:02.241Z,30.80
2019-04-21T10:38:40.072Z,32.70
2019-04-21T10:41:05.535Z,31.40
2019-04-21T10:43:37.448Z,30.40
2019-04-21T10:46:08.800Z,31.20
2019-04-21T10:48:41.067Z,30.90
2019-04-21T10:51:13.015Z,31.10
2019-04-21T10:53:48.139Z,30.60
2019-04-21T10:56:27.214Z,31.70
2019-04-21T10:58:52.279Z,31.30
2019-04-21T11:01:31.522Z,31.10
2019-04-21T11:04:36.717Z,31.00
2019-04-21T11:07:27.527Z,29.90
2019-04-21T11:09:56.093Z,32.60
2019-04-21T11:12:27.835Z,32.20
2019-04-21T11:14:59.099Z,30.90
2019-04-21T11:17:32.241Z,31.80
2019-04-21T11:20:04.667Z,31.10
2019-04-21T11:22:37.322Z,30.70
2019-04-21T11:25:09.138Z,30.60
2019-04-21T11:27:40.788Z,30.70
2019-04-21T11:30:11.757Z,31.40
2019-04-21T11:32:44.915Z,30.70
2019-04-21T11:35:16.858Z,30.00
2019-04-21T11:37:48.394Z,30.10
2019-04-21T11:40:21.555Z,31.00
2019-04-21T11:42:51.805Z,30.00
2019-04-21T11:45:30.569Z,31.00
2019-04-21T11:48:32.387Z,30.60
2019-04-21T11:51:04.728Z,30.80
2019-04-21T11:53:36.890Z,31.00
2019-04-21T11:56:08.990Z,30.80
2019-04-21T11:58:39.982Z,30.80
2019-04-21T12:01:11.852Z,30.40
2019-04-21T12:03:42.699Z,30.60
2019-04-21T12:06:13.537Z,30.10
2019-04-21T12:08:49.018Z,30.50
2019-04-21T12:11:17.760Z,30.40
2019-04-21T12:13:49.687Z,30.90
2019-04-21T12:16:21.166Z,30.70
2019-04-21T12:18:52.437Z,30.40
2019-04-21T12:21:23.424Z,31.10
2019-04-21T12:23:54.459Z,30.40
2019-04-21T12:26:26.400Z,30.00
2019-04-21T12:28:57.654Z,30.80
2019-04-21T12:31:57.207Z,30.70
2019-04-21T12:34:30.098Z,31.80
2019-04-21T12:37:01.293Z,31.10
2019-04-21T12:39:32.733Z,31.10
2019-04-21T12:42:04.731Z,29.90
2019-04-21T12:44:37.068Z,30.60
2019-04-21T12:47:08.206Z,30.20
2019-04-21T12:49:39.814Z,30.50
2019-04-21T12:52:11.625Z,30.20
2019-04-21T12:54:43.821Z,30.10
2019-04-21T12:57:15.118Z,30.10
2019-04-21T12:59:46.676Z,30.60
2019-04-21T13:02:17.866Z,30.00
2019-04-21T13:04:49.737Z,29.80
2019-04-21T13:07:21.637Z,29.40
2019-04-21T13:09:52.695Z,29.60
2019-04-21T13:12:24.785Z,29.70
2019-04-21T13:14:57.634Z,30.10
2019-04-21T13:17:28.085Z,29.80
2019-04-21T13:19:59.134Z,29.60
2019-04-21T13:22:30.070Z,29.20
2019-04-21T13:25:02.264Z,28.30
2019-04-21T13:27:34.590Z,28.10
2019-04-21T13:30:06.471Z,28.40
2019-04-21T13:32:37.578Z,28.90
2019-04-21T13:35:08.820Z,28.90
2019-04-21T13:37:39.945Z,28.20
2019-04-21T13:40:56.967Z,28.40
2019-04-21T13:43:17.177Z,28.30
2019-04-21T13:45:47.986Z,28.50
2019-04-21T13:48:18.998Z,28.70
2019-04-21T13:50:51.120Z,28.30
2019-04-21T13:53:22.767Z,27.60
2019-04-21T13:55:53.560Z,27.40
2019-04-21T13:58:24.577Z,27.40
2019-04-21T14:00:56.076Z,27.90
2019-04-21T14:03:27.229Z,27.70
2019-04-21T14:05:58.334Z,27.80
2019-04-21T14:08:49.140Z,27.50
2019-04-21T14:11:19.909Z,28.30
2019-04-21T14:13:52.002Z,27.80
2019-04-21T14:16:24.503Z,27.60
2019-04-21T14:18:55.247Z,27.10
2019-04-21T14:21:27.241Z,26.80
2019-04-21T14:23:59.462Z,27.80
2019-04-21T14:26:30.272Z,28.20
2019-04-21T14:29:01.575Z,27.70
2019-04-21T14:31:32.770Z,27.50
2019-04-21T14:34:03.902Z,27.80
2019-04-21T14:36:34.944Z,27.90
2019-04-21T14:39:10.590Z,28.00
2019-04-21T14:41:42.205Z,27.70
2019-04-21T14:44:13.297Z,27.80
2019-04-21T14:46:53.299Z,27.90
2019-04-21T14:49:31.088Z,27.90
2019-04-21T14:52:19.113Z,28.50
2019-04-21T14:55:14.309Z,28.20
2019-04-21T14:57:45.244Z,28.40
2019-04-21T15:00:19.020Z,29.50
2019-04-21T15:02:49.927Z,28.10
2019-04-21T15:05:21.727Z,28.40
2019-04-21T15:07:53.203Z,28.50
2019-04-21T15:10:27.754Z,28.50
2019-04-21T15:12:56.896Z,28.90
2019-04-21T15:15:27.946Z,28.80
2019-04-21T15:17:59.840Z,29.10
2019-04-21T15:20:30.976Z,28.50
2019-04-21T15:23:02.107Z,28.10
2019-04-21T15:25:34.416Z,28.00
2019-04-21T15:28:05.528Z,27.90
2019-04-21T15:30:36.676Z,28.20
2019-04-21T15:33:08.590Z,28.60
2019-04-21T15:35:40.617Z,28.00
2019-04-21T15:38:11.861Z,28.20
2019-04-21T15:40:50.515Z,28.70
2019-04-21T15:43:16.153Z,28.60
2019-04-21T15:45:46.882Z,28.30
2019-04-21T15:48:18.221Z,28.10
2019-04-21T15:50:50.345Z,28.00
2019-04-21T15:53:23.580Z,28.60
2019-04-21T15:56:11.044Z,28.60
2019-04-21T15:58:56.785Z,28.50
2019-04-21T16:01:38.867Z,28.70
2019-04-21T16:04:10.699Z,28.60
2019-04-21T16:06:41.653Z,28.70
2019-04-21T16:09:19.855Z,28.80
2019-04-21T16:11:46.104Z,28.40
2019-04-21T16:14:16.913Z,28.30
2019-04-21T16:16:49.451Z,28.80
2019-04-21T16:19:20.472Z,29.40
2019-04-21T16:21:52.520Z,29.10
2019-04-21T16:24:25.217Z,28.90
2019-04-21T16:26:56.576Z,29.40
2019-04-21T16:29:27.570Z,29.60
2019-04-21T16:31:59.638Z,29.50
2019-04-21T16:34:40.138Z,29.30
2019-04-21T16:37:03.630Z,29.10
2019-04-21T16:39:37.980Z,29.40
2019-04-21T16:42:08.562Z,28.90
2019-04-21T16:44:40.986Z,29.20
2019-04-21T16:47:11.780Z,29.50
2019-04-21T16:49:43.497Z,29.70
2019-04-21T16:52:27.992Z,29.80
2019-04-21T16:55:19.120Z,29.90
2019-04-21T16:58:04.273Z,29.80
2019-04-21T17:00:38.706Z,29.90
2019-04-21T17:03:00.742Z,30.10
2019-04-21T17:05:32.215Z,30.40
2019-04-21T17:08:04.064Z,30.60
2019-04-21T17:10:35.000Z,30.60
2019-04-21T17:13:06.708Z,30.70
2019-04-21T17:15:56.688Z,30.50
2019-04-21T17:18:28.265Z,30.50
2019-04-21T17:20:47.448Z,30.80
2019-04-21T17:23:13.639Z,31.10
2019-04-21T17:25:45.038Z,31.20
2019-04-21T17:28:15.698Z,31.40
2019-04-21T17:30:46.331Z,31.40
2019-04-21T17:33:22.680Z,31.40
2019-04-21T17:35:49.181Z,31.30
2019-04-21T17:38:21.855Z,31.80
2019-04-21T17:40:52.211Z,33.30
2019-04-21T17:43:23.729Z,32.20
2019-04-21T17:45:55.180Z,32.40
2019-04-21T17:48:27.017Z,32.60
2019-04-21T17:51:07.489Z,32.70
2019-04-21T17:53:55.341Z,32.80
2019-04-21T17:56:55.183Z,32.90
2019-04-21T17:59:16.376Z,33.00
2019-04-21T18:01:48.434Z,33.10
2019-04-21T18:04:21.220Z,33.10
2019-04-21T18:07:20.598Z,33.20
2019-04-21T18:10:00.963Z,33.30
2019-04-21T18:12:32.294Z,33.30
2019-04-21T18:14:56.260Z,33.50
2019-04-21T18:17:18.505Z,33.70
2019-04-21T18:19:51.717Z,33.70
2019-04-21T18:22:44.300Z,33.80
2019-04-21T18:25:28.159Z,33.60
2019-04-21T18:27:50.409Z,34.70
2019-04-21T18:31:16.523Z,34.20
2019-04-21T18:34:02.189Z,33.90
2019-04-21T18:36:34.815Z,33.90
2019-04-21T18:39:34.017Z,34.30
2019-04-21T18:42:18.845Z,34.50
2019-04-21T18:45:27.859Z,34.70
2019-04-21T18:47:57.079Z,34.60
2019-04-21T18:50:41.702Z,34.50
2019-04-21T18:53:24.495Z,34.50
2019-04-21T18:55:47.136Z,34.50
2019-04-21T18:58:15.721Z,34.60
2019-04-21T19:00:48.607Z,34.50
2019-04-21T19:03:27.294Z,34.40
2019-04-21T19:05:58.277Z,34.50
2019-04-21T19:08:46.583Z,34.70
2019-04-21T19:11:19.017Z,35.00
2019-04-21T19:14:22.491Z,35.10
2019-04-21T19:16:49.790Z,35.80
2019-04-21T19:19:34.089Z,36.00
2019-04-21T19:21:40.458Z,36.10
2019-04-21T19:24:24.328Z,36.30
2019-04-21T19:27:00.475Z,37.30
2019-04-21T19:31:54.650Z,36.90
2019-04-21T19:34:16.481Z,36.80
2019-04-21T19:36:49.568Z,36.80
2019-04-21T19:39:27.136Z,37.10
2019-04-21T19:42:00.743Z,37.30
2019-04-21T19:44:40.481Z,37.40
2019-04-21T19:47:10.437Z,38.10
2019-04-21T19:49:45.496Z,38.10
2019-04-21T19:52:03.941Z,38.30
2019-04-21T19:54:35.878Z,38.50
2019-04-21T19:57:01.078Z,38.30
2019-04-21T19:59:40.536Z,38.70
2019-04-21T20:02:06.787Z,38.80
2019-04-21T20:04:43.893Z,39.60
2019-04-21T20:07:28.986Z,40.20
2019-04-21T20:10:11.678Z,40.90
2019-04-21T20:12:39.833Z,46.00
2019-04-21T20:15:20.339Z,41.00
2019-04-21T20:17:42.657Z,40.80
2019-04-21T20:20:00.361Z,41.40
2019-04-21T20:22:36.819Z,41.90
2019-04-21T20:25:09.870Z,43.20
2019-04-21T20:27:45.525Z,43.60
2019-04-21T20:30:26.062Z,43.10
2019-04-21T20:33:05.888Z,42.90
2019-04-21T20:35:38.233Z,42.20
2019-04-21T20:38:01.992Z,42.40
2019-04-21T20:40:32.998Z,42.80
2019-04-21T20:43:13.432Z,43.20
2019-04-21T20:45:45.576Z,43.60
2019-04-21T20:48:09.414Z,44.10
2019-04-21T20:50:41.942Z,43.00
2019-04-21T20:53:25.137Z,42.80
2019-04-21T20:55:48.505Z,42.30
2019-04-21T20:58:23.981Z,44.10
2019-04-21T21:01:20.300Z,45.00
2019-04-21T21:03:35.245Z,45.00
2019-04-21T21:05:58.569Z,44.30
2019-04-21T21:08:38.842Z,44.00
2019-04-21T21:11:02.371Z,44.20
2019-04-21T21:13:42.647Z,43.70
2019-04-21T21:19:04.728Z,43.50
2019-04-21T21:21:16.119Z,43.50
2019-04-21T21:23:52.702Z,43.60
2019-04-21T21:26:25.829Z,43.70
2019-04-21T21:28:54.069Z,44.10
2019-04-21T21:31:35.619Z,44.30
2019-04-21T21:34:15.319Z,43.40
2019-04-21T21:36:31.539Z,43.30
2019-04-21T21:39:09.149Z,43.50
2019-04-21T21:41:29.858Z,44.30
2019-04-21T21:44:02.778Z,43.90
2019-04-21T21:46:42.964Z,43.90
2019-04-21T21:49:07.462Z,44.00
2019-04-21T21:51:45.085Z,44.20
2019-04-21T21:54:09.610Z,43.80
2019-04-21T21:56:40.881Z,44.20
2019-04-21T21:59:20.136Z,44.00
2019-04-21T22:01:50.678Z,44.20
2019-04-21T22:04:25.932Z,44.60
2019-04-21T22:06:58.470Z,44.70
2019-04-21T22:09:24.249Z,45.00
2019-04-21T22:12:00.518Z,45.70
2019-04-21T22:14:35.438Z,46.00
2019-04-21T22:17:17.509Z,45.60
2019-04-21T22:20:00.294Z,45.30
2019-04-21T22:22:23.315Z,45.50
2019-04-21T22:24:50.699Z,47.00
2019-04-21T22:27:12.891Z,47.90
2019-04-21T22:29:49.233Z,47.90
2019-04-21T22:32:21.541Z,47.10
2019-04-21T22:34:54.818Z,48.70
2019-04-21T22:37:39.294Z,49.20
2019-04-21T22:40:08.562Z,49.70
2019-04-21T22:42:33.210Z,49.60
2019-04-21T22:45:01.431Z,49.30
2019-04-21T22:47:36.062Z,48.70
2019-04-21T22:50:06.453Z,48.60
2019-04-21T22:52:37.537Z,48.70
2019-04-21T22:55:17.107Z,48.00
2019-04-21T22:57:47.859Z,47.80
2019-04-21T23:00:17.413Z,49.20
2019-04-21T23:02:54.904Z,49.90
2019-04-21T23:05:28.272Z,49.90
2019-04-21T23:07:58.625Z,50.00
2019-04-21T23:10:27.443Z,50.30
2019-04-21T23:13:05.663Z,50.90
2019-04-21T23:15:39.486Z,51.40
2019-04-21T23:18:22.048Z,51.10
2019-04-21T23:20:53.657Z,51.10
2019-04-21T23:23:29.740Z,51.20
2019-04-21T23:25:53.343Z,51.20
2019-04-21T23:28:30.448Z,51.50
2019-04-21T23:31:00.777Z,51.80
2019-04-21T23:33:19.555Z,52.00
2019-04-21T23:35:49.545Z,52.50
2019-04-21T23:38:26.606Z,53.30
2019-04-21T23:40:57.856Z,53.70
2019-04-21T23:43:27.750Z,53.60
2019-04-21T23:45:57.280Z,54.00
2019-04-21T23:48:39.216Z,54.10
2019-04-21T23:51:13.909Z,54.20
2019-04-21T23:53:33.335Z,54.20
2019-04-21T23:56:13.420Z,54.40
2019-04-21T23:58:45.817Z,54.50
